Terminal Aerodrome Forecast
Issued by NWS Amarillo, TX

Home | Current Version | Previous Version | Text Only | Print | Product List | Glossary On
Versions: 1 2 3 4 5 6 7 8 9 10 11 12 13
627
FTUS44 KAMA 231731
TAFGUY
TAF
KGUY 231731Z 2318/2418 06010KT P6SM SCT100
     FM240000 10008KT P6SM SCT080
     FM240500 VRB03KT P6SM SCT150
     FM241400 15008KT P6SM FEW150=

USA.gov is the U.S. government's official web portal to all federal, state and local government web resources and services.